Navigator Of The Seas — C6FU4 — position and weather

sailwx.info

Track history (hours):
 
Tides and Currents Weather Stations Pressure Air Temp Water Temp Dewpoint Dewpoint Depression Visibility Wind Speed Wind Dir Waves Ship Positions

Navigator Of The Seas

Operator: Royal Caribbean Cruises Ltd

Last reported at 2020-Mar-29 14:26 UTC. Time now 2020-Mar-29 15:20 UTC.
Position N 25°46' W 080°10'.

Type: Passenger vessel. MMSI: 311478000.

Date/timePositionNaut miles runAvg speedWind from/ knotsBaromVisibWave heightAir tempDewpointWater temp
2020-Mar-29 14:26N 25°46' W 080°10'0 0.0
2020-Mar-29 13:26N 25°46' W 080°10'0 0.0
2020-Mar-29 12:56N 25°46' W 080°10'0 0.0
2020-Mar-29 12:26N 25°46' W 080°10'0 0.1
2020-Mar-29 11:30N 25°46' W 080°10'12 4.7
2020-Mar-29 09:00N 25°48' W 079°57'14 2.5
2020-Mar-29 03:30N 25°57' W 079°46'3 3.2
2020-Mar-29 02:30N 26°00' W 079°47'11 4.5
2020-Mar-29 00:00N 26°04' W 079°59'2 4.8
2020-Mar-28 23:30N 26°05' W 080°02'2 0.7
2020-Mar-28 21:00N 26°05' W 080°03'0 0.1
2020-Mar-28 19:30N 26°05' W 080°03'1 0.2
2020-Mar-28 15:30N 26°05' W 080°02'2 0.8
2020-Mar-28 12:30N 26°04' W 080°00'0 0.0
2020-Mar-28 12:00N 26°04' W 080°00'1 2.3
2020-Mar-28 11:30N 26°03' W 079°59'12 4.1
2020-Mar-28 08:30N 25°58' W 079°47'12 6.2
2020-Mar-28 06:30N 25°58' W 079°33'3 5.6
2020-Mar-28 06:00N 25°60' W 079°31'13 4.5
2020-Mar-28 03:00N 26°06' W 079°45'3 5.8
2020-Mar-28 02:30N 26°06' W 079°48'4 7.4
2020-Mar-28 02:00N 26°05' W 079°52'8 8.2
2020-Mar-28 01:01N 26°03' W 080°01'16 6.4
2020-Mar-27 22:30N 25°47' W 080°01'0 0.2
2020-Mar-27 21:31N 25°47' W 080°01'49 2.0
2020-Mar-26 21:04N 26°04' W 079°10'0 0.0
2020-Mar-26 17:55N 26°04' W 079°10'0 0.0
2020-Mar-26 17:22N 26°04' W 079°10'0 0.0
2020-Mar-26 14:37N 26°04' W 079°10'0 0.0
2020-Mar-26 13:25N 26°04' W 079°10'0 0.0
2020-Mar-26 10:58N 26°04' W 079°10'0 0.0
2020-Mar-26 09:58N 26°04' W 079°10'0 0.1
2020-Mar-26 09:28N 26°04' W 079°10'0 0.0
2020-Mar-26 07:34N 26°04' W 079°10'0 0.1
2020-Mar-26 07:19N 26°04' W 079°10'0 0.1
2020-Mar-26 06:52N 26°04' W 079°10'0 0.2
2020-Mar-26 06:22N 26°04' W 079°10'0 0.1
2020-Mar-26 05:52N 26°04' W 079°10'6 0.1
2020-Mar-24 09:53N 26°07' W 079°16'5 3.3
2020-Mar-24 08:30N 26°06' W 079°21'4 7.2
2020-Mar-24 08:00N 26°04' W 079°24'4 7.8
2020-Mar-24 07:30N 26°02' W 079°28'15 7.5
2020-Mar-24 05:30N 25°56' W 079°43'6 6.3
2020-Mar-24 04:30N 25°54' W 079°50'13 4.2
2020-Mar-24 01:30N 25°47' W 080°02'6 5.9
2020-Mar-24 00:30N 25°46' W 080°08'1 1.3
2020-Mar-23 23:29N 25°46' W 080°10'0 0.0
2020-Mar-23 20:59N 25°46' W 080°10'0 0.0
2020-Mar-23 19:29N 25°46' W 080°10'0 0.0
2020-Mar-23 13:29N 25°46' W 080°10'0 0.0
2020-Mar-23 12:59N 25°46' W 080°10'0 0.3
2020-Mar-23 11:30N 25°47' W 080°10'4 8.9
2020-Mar-23 11:01N 25°46' W 080°05'9 5.7
2020-Mar-23 09:30N 25°50' W 079°57'6 3.9
2020-Mar-23 08:00N 25°54' W 079°52'10 4.0
2020-Mar-23 05:30N 26°00' W 079°43'4 4.2
2020-Mar-23 04:30N 26°02' W 079°39'9 4.7
2020-Mar-23 02:30N 26°08' W 079°30'2 4.8
2020-Mar-23 02:00N 26°09' W 079°28'3 5.3
2020-Mar-23 01:30N 26°10' W 079°26'8 5.6
2020-Mar-23 00:00N 26°14' W 079°17'67 5.2
2020-Mar-22 11:00N 25°42' W 078°12'   090
Track history (hours):
 
Tides and Currents Weather Stations Pressure Air Temp Water Temp Dewpoint Dewpoint Depression Visibility Wind Speed Wind Dir Waves Ship Positions

Navigator Of The Seas

Operator: Royal Caribbean Cruises Ltd

Last reported at 2020-Mar-29 14:26 UTC. Time now 2020-Mar-29 15:20 UTC.
Position N 25°46' W 080°10'.

Type: Passenger vessel. MMSI: 311478000.

Date/timePositionNaut miles runAvg speedWind from/ knotsBaromVisibWave heightAir tempDewpointWater temp
2020-Mar-29 14:26N 25°46' W 080°10'0 0.0
2020-Mar-29 13:26N 25°46' W 080°10'0 0.0
2020-Mar-29 12:56N 25°46' W 080°10'0 0.0
2020-Mar-29 12:26N 25°46' W 080°10'0 0.1
2020-Mar-29 11:30N 25°46' W 080°10'12 4.7
2020-Mar-29 09:00N 25°48' W 079°57'14 2.5
2020-Mar-29 03:30N 25°57' W 079°46'3 3.2
2020-Mar-29 02:30N 26°00' W 079°47'11 4.5
2020-Mar-29 00:00N 26°04' W 079°59'2 4.8
2020-Mar-28 23:30N 26°05' W 080°02'2 0.7
2020-Mar-28 21:00N 26°05' W 080°03'0 0.1
2020-Mar-28 19:30N 26°05' W 080°03'1 0.2
2020-Mar-28 15:30N 26°05' W 080°02'2 0.8
2020-Mar-28 12:30N 26°04' W 080°00'0 0.0
2020-Mar-28 12:00N 26°04' W 080°00'1 2.3
2020-Mar-28 11:30N 26°03' W 079°59'12 4.1
2020-Mar-28 08:30N 25°58' W 079°47'12 6.2
2020-Mar-28 06:30N 25°58' W 079°33'3 5.6
2020-Mar-28 06:00N 25°60' W 079°31'13 4.5
2020-Mar-28 03:00N 26°06' W 079°45'3 5.8
2020-Mar-28 02:30N 26°06' W 079°48'4 7.4
2020-Mar-28 02:00N 26°05' W 079°52'8 8.2
2020-Mar-28 01:01N 26°03' W 080°01'16 6.4
2020-Mar-27 22:30N 25°47' W 080°01'0 0.2
2020-Mar-27 21:31N 25°47' W 080°01'49 2.0
2020-Mar-26 21:04N 26°04' W 079°10'0 0.0
2020-Mar-26 17:55N 26°04' W 079°10'0 0.0
2020-Mar-26 17:22N 26°04' W 079°10'0 0.0
2020-Mar-26 14:37N 26°04' W 079°10'0 0.0
2020-Mar-26 13:25N 26°04' W 079°10'0 0.0
2020-Mar-26 10:58N 26°04' W 079°10'0 0.0
2020-Mar-26 09:58N 26°04' W 079°10'0 0.1
2020-Mar-26 09:28N 26°04' W 079°10'0 0.0
2020-Mar-26 07:34N 26°04' W 079°10'0 0.1
2020-Mar-26 07:19N 26°04' W 079°10'0 0.1
2020-Mar-26 06:52N 26°04' W 079°10'0 0.2
2020-Mar-26 06:22N 26°04' W 079°10'0 0.1
2020-Mar-26 05:52N 26°04' W 079°10'6 0.1
2020-Mar-24 09:53N 26°07' W 079°16'5 3.3
2020-Mar-24 08:30N 26°06' W 079°21'4 7.2
2020-Mar-24 08:00N 26°04' W 079°24'4 7.8
2020-Mar-24 07:30N 26°02' W 079°28'15 7.5
2020-Mar-24 05:30N 25°56' W 079°43'6 6.3
2020-Mar-24 04:30N 25°54' W 079°50'13 4.2
2020-Mar-24 01:30N 25°47' W 080°02'6 5.9
2020-Mar-24 00:30N 25°46' W 080°08'1 1.3
2020-Mar-23 23:29N 25°46' W 080°10'0 0.0
2020-Mar-23 20:59N 25°46' W 080°10'0 0.0
2020-Mar-23 19:29N 25°46' W 080°10'0 0.0
2020-Mar-23 13:29N 25°46' W 080°10'0 0.0
2020-Mar-23 12:59N 25°46' W 080°10'0 0.3
2020-Mar-23 11:30N 25°47' W 080°10'4 8.9
2020-Mar-23 11:01N 25°46' W 080°05'9 5.7
2020-Mar-23 09:30N 25°50' W 079°57'6 3.9
2020-Mar-23 08:00N 25°54' W 079°52'10 4.0
2020-Mar-23 05:30N 26°00' W 079°43'4 4.2
2020-Mar-23 04:30N 26°02' W 079°39'9 4.7
2020-Mar-23 02:30N 26°08' W 079°30'2 4.8
2020-Mar-23 02:00N 26°09' W 079°28'3 5.3
2020-Mar-23 01:30N 26°10' W 079°26'8 5.6
2020-Mar-23 00:00N 26°14' W 079°17'67 5.2
2020-Mar-22 11:00N 25°42' W 078°12'   090

Dump ship's entire track history